Time;durP1;ratioP1;P1;durP2;ratioP2;P2;SDS_P1;SDS_P2;PMS_P1;PMS_P2;Temp;Humidity;BMP_temperature;BMP_pressure;BME280_temperature;BME280_humidity;BME280_pressure;Samples;Min_cycle;Max_cycle;Signal;HPM_P1;HPM_P2
2021/10/25 00:00:05;;;;;;;2.90;2.70;;;17.50;61.60;;;;;;5053388;28;20645;-65
2021/10/25 00:02:31;;;;;;;2.88;2.67;;;17.50;61.70;;;;;;5052041;28;20179;-65
2021/10/25 00:04:56;;;;;;;2.80;2.60;;;17.50;61.70;;;;;;5053271;28;20174;-63
2021/10/25 00:07:22;;;;;;;2.97;2.67;;;17.50;61.60;;;;;;5053073;28;20194;-64
2021/10/25 00:09:47;;;;;;;2.65;2.45;;;17.50;61.70;;;;;;5052271;28;20626;-65
2021/10/25 00:12:13;;;;;;;2.95;2.58;;;17.50;61.70;;;;;;5052986;28;20182;-66
2021/10/25 00:14:38;;;;;;;3.13;2.70;;;17.50;62.50;;;;;;5052055;28;20171;-67
2021/10/25 00:17:04;;;;;;;3.28;2.90;;;17.50;61.60;;;;;;5052814;28;20232;-66
2021/10/25 00:19:31;;;;;;;3.17;2.85;;;17.50;61.60;;;;;;5052854;28;20175;-65
2021/10/25 00:21:56;;;;;;;3.60;2.75;;;17.50;61.70;;;;;;5052450;28;20178;-65
2021/10/25 00:24:22;;;;;;;2.80;2.60;;;17.40;61.60;;;;;;5052747;28;20175;-66
2021/10/25 00:26:47;;;;;;;3.45;3.20;;;17.40;61.50;;;;;;5052463;28;20543;-66
2021/10/25 00:29:13;;;;;;;3.10;2.80;;;17.40;61.60;;;;;;5052191;28;20180;-67
2021/10/25 00:31:38;;;;;;;3.25;2.58;;;17.40;61.60;;;;;;5052476;28;20171;-65
2021/10/25 00:34:04;;;;;;;3.15;2.92;;;17.40;61.60;;;;;;5052961;28;20167;-65
2021/10/25 00:36:30;;;;;;;3.20;2.90;;;17.40;61.60;;;;;;5051695;28;20199;-65
2021/10/25 00:38:56;;;;;;;2.90;2.70;;;17.40;61.60;;;;;;5052688;28;20218;-65
2021/10/25 00:41:21;;;;;;;3.05;2.75;;;17.40;61.60;;;;;;5052962;28;20171;-65
2021/10/25 00:43:50;;;;;;;2.78;2.58;;;17.40;61.60;;;;;;5051386;28;20222;-65
2021/10/25 00:46:15;;;;;;;2.45;2.25;;;17.40;61.60;;;;;;5052691;28;20209;-66
2021/10/25 00:48:41;;;;;;;3.20;2.88;;;17.40;61.60;;;;;;5052129;28;20219;-66
2021/10/25 00:51:06;;;;;;;3.08;2.88;;;17.30;61.60;;;;;;5052030;28;20175;-67
2021/10/25 00:53:32;;;;;;;2.47;2.28;;;17.40;61.60;;;;;;5052374;28;20570;-66
2021/10/25 00:55:58;;;;;;;3.00;2.70;;;17.30;61.60;;;;;;5052774;28;20649;-67
2021/10/25 00:58:25;;;;;;;2.88;2.55;;;17.30;61.50;;;;;;5051626;28;20207;-68
2021/10/25 01:00:50;;;;;;;2.72;2.53;;;17.30;61.50;;;;;;5054440;28;20171;-67
2021/10/25 01:03:16;;;;;;;2.60;2.40;;;17.30;61.60;;;;;;5056468;28;20586;-66
2021/10/25 01:05:42;;;;;;;3.00;2.80;;;17.30;61.60;;;;;;5055658;28;20183;-65
2021/10/25 01:08:07;;;;;;;2.50;2.30;;;17.30;61.50;;;;;;5056565;28;20657;-65
2021/10/25 01:10:33;;;;;;;2.63;2.25;;;17.30;61.50;;;;;;5056466;28;20187;-65
2021/10/25 01:12:58;;;;;;;3.15;2.85;;;17.30;61.60;;;;;;5055560;28;20182;-67
2021/10/25 01:15:24;;;;;;;3.20;2.88;;;17.20;61.50;;;;;;5056469;28;20254;-66
2021/10/25 01:17:57;;;;;;;2.67;2.47;;;17.20;61.50;;;;;;5056139;28;20272;-66
2021/10/25 01:20:23;;;;;;;2.75;2.53;;;17.30;61.60;;;;;;5056228;28;20236;-65
2021/10/25 01:22:49;;;;;;;3.33;2.45;;;17.20;61.50;;;;;;5056000;28;20190;-65
2021/10/25 01:25:14;;;;;;;2.95;2.75;;;17.20;61.60;;;;;;5055476;28;20167;-67
2021/10/25 01:27:43;;;;;;;2.75;2.55;;;17.20;61.50;;;;;;5055821;28;20175;-66
2021/10/25 01:30:08;;;;;;;2.95;2.67;;;17.20;61.60;;;;;;5055088;28;20187;-66
2021/10/25 01:32:34;;;;;;;2.80;2.60;;;17.20;61.60;;;;;;5054850;28;20540;-66
2021/10/25 01:34:59;;;;;;;2.60;2.40;;;17.20;61.60;;;;;;5056083;28;20182;-65
2021/10/25 01:37:25;;;;;;;2.50;2.30;;;17.20;61.50;;;;;;5055977;28;20207;-66
2021/10/25 01:39:50;;;;;;;2.45;2.33;;;17.20;61.50;;;;;;5054803;28;20182;-67
2021/10/25 01:42:16;;;;;;;2.83;2.53;;;17.20;62.40;;;;;;5055603;28;20630;-65
2021/10/25 01:44:42;;;;;;;2.55;2.35;;;17.20;61.50;;;;;;5055455;28;20256;-66
2021/10/25 01:47:07;;;;;;;2.40;2.20;;;17.20;61.60;;;;;;5055206;28;20205;-67
2021/10/25 01:49:33;;;;;;;2.47;2.38;;;17.20;61.50;;;;;;5055452;28;20221;-66
2021/10/25 01:52:00;;;;;;;2.97;2.65;;;17.10;61.50;;;;;;5055805;28;20186;-67
2021/10/25 01:54:25;;;;;;;2.75;2.55;;;17.10;61.50;;;;;;5054632;28;20561;-67
2021/10/25 01:56:51;;;;;;;2.47;2.28;;;17.10;61.50;;;;;;5055392;28;20209;-66
2021/10/25 01:59:16;;;;;;;3.35;2.75;;;17.10;61.50;;;;;;5055337;28;20211;-67
2021/10/25 02:01:42;;;;;;;2.45;2.28;;;17.10;61.60;;;;;;5054402;28;20221;-64
2021/10/25 02:04:07;;;;;;;2.47;2.28;;;17.10;61.50;;;;;;5055688;28;20217;-65
2021/10/25 02:06:33;;;;;;;2.83;2.63;;;17.10;61.50;;;;;;5055189;28;20171;-64
2021/10/25 02:08:59;;;;;;;2.58;2.40;;;17.10;61.50;;;;;;5054656;28;20186;-65
2021/10/25 02:11:25;;;;;;;3.03;2.72;;;17.10;61.50;;;;;;5054747;28;20175;-66
2021/10/25 02:13:51;;;;;;;2.90;2.70;;;17.10;61.60;;;;;;5054849;28;20546;-67
2021/10/25 02:16:16;;;;;;;2.40;2.20;;;17.10;61.50;;;;;;5054779;28;20193;-67
2021/10/25 02:18:42;;;;;;;2.63;2.42;;;17.00;61.50;;;;;;5054923;28;20210;-66
2021/10/25 02:21:08;;;;;;;2.70;2.50;;;17.00;61.50;;;;;;5055487;28;20167;-67
2021/10/25 02:23:33;;;;;;;2.90;2.70;;;17.00;61.40;;;;;;5054226;28;20175;-68
2021/10/25 02:25:59;;;;;;;2.50;2.30;;;17.10;61.60;;;;;;5054937;28;20176;-67
2021/10/25 02:28:24;;;;;;;2.80;2.60;;;17.00;61.50;;;;;;5054177;28;20177;-67
2021/10/25 02:30:52;;;;;;;3.05;2.80;;;17.00;61.40;;;;;;5054797;28;20664;-67
2021/10/25 02:33:18;;;;;;;2.80;2.60;;;17.00;61.50;;;;;;5054796;28;20656;-67
2021/10/25 02:35:43;;;;;;;2.30;2.20;;;17.00;61.50;;;;;;5053927;28;20544;-65
2021/10/25 02:38:09;;;;;;;2.70;2.50;;;17.00;61.50;;;;;;5054605;28;20677;-67
2021/10/25 02:40:34;;;;;;;2.63;2.42;;;17.00;61.50;;;;;;5054554;28;20175;-66
2021/10/25 02:43:00;;;;;;;2.60;2.40;;;17.00;61.50;;;;;;5053897;28;20242;-68
2021/10/25 02:45:25;;;;;;;2.67;2.47;;;17.00;61.50;;;;;;5054889;28;20175;-67
2021/10/25 02:47:51;;;;;;;2.63;2.42;;;17.00;61.50;;;;;;5054509;28;20184;-67
2021/10/25 02:50:17;;;;;;;2.35;2.25;;;17.00;61.50;;;;;;5053835;28;20716;-67
2021/10/25 02:52:42;;;;;;;2.67;2.47;;;17.00;61.50;;;;;;5054144;28;20199;-68
2021/10/25 02:55:08;;;;;;;2.90;2.70;;;17.00;61.50;;;;;;5054414;28;20533;-68
2021/10/25 02:57:33;;;;;;;2.70;2.50;;;16.90;61.40;;;;;;5053277;28;20229;-67
2021/10/25 02:59:59;;;;;;;2.88;2.67;;;17.00;61.50;;;;;;5054520;28;20167;-66
2021/10/25 03:02:24;;;;;;;2.47;2.28;;;17.00;61.50;;;;;;5054476;28;20217;-66
2021/10/25 03:04:50;;;;;;;2.65;2.45;;;16.90;61.50;;;;;;5053310;28;20175;-65
2021/10/25 03:07:16;;;;;;;2.90;2.70;;;16.90;61.50;;;;;;5054371;28;20172;-67
2021/10/25 03:09:41;;;;;;;2.35;2.20;;;16.90;61.50;;;;;;5053795;28;20248;-65
2021/10/25 03:12:07;;;;;;;2.55;2.35;;;16.90;61.50;;;;;;5053414;28;20205;-67
2021/10/25 03:14:32;;;;;;;2.53;2.33;;;16.90;61.50;;;;;;5054012;28;20190;-69
2021/10/25 03:16:58;;;;;;;2.30;2.20;;;16.90;61.50;;;;;;5053900;28;20575;-68
2021/10/25 03:19:25;;;;;;;2.53;2.33;;;16.90;61.50;;;;;;5053391;28;20548;-67
2021/10/25 03:21:50;;;;;;;2.45;2.25;;;16.90;61.50;;;;;;5053830;28;20182;-66
2021/10/25 03:24:16;;;;;;;2.47;2.28;;;16.90;61.50;;;;;;5052873;28;20168;-67
2021/10/25 03:26:42;;;;;;;2.40;2.20;;;16.90;61.50;;;;;;5052826;28;20178;-67
2021/10/25 03:29:07;;;;;;;2.15;2.05;;;16.90;61.50;;;;;;5053701;28;20175;-67
2021/10/25 03:31:33;;;;;;;2.28;2.08;;;16.90;61.50;;;;;;5053075;28;20175;-65
2021/10/25 03:33:59;;;;;;;2.28;2.08;;;16.90;61.50;;;;;;5053945;28;20218;-66
2021/10/25 03:36:27;;;;;;;2.50;2.33;;;16.90;61.50;;;;;;5053679;28;20250;-65
2021/10/25 03:38:53;;;;;;;2.60;2.40;;;16.90;61.50;;;;;;5052707;28;20214;-65
2021/10/25 03:41:28;;;;;;;2.45;2.28;;;16.90;61.50;;;;;;5053458;28;20547;-66
2021/10/25 03:44:06;;;;;;;2.80;2.60;;;16.90;61.60;;;;;;5053396;28;20240;-66
2021/10/25 03:49:13;;;;;;;2.50;2.30;;;16.90;61.60;;;;;;5053544;28;20175;-66
2021/10/25 03:51:40;;;;;;;2.22;2.13;;;16.90;62.40;;;;;;5053182;28;20540;-67
2021/10/25 03:54:33;;;;;;;2.63;2.42;;;16.80;61.50;;;;;;5052533;28;20583;-66
2021/10/25 04:29:13;;;;;;;1.98;1.88;;;16.80;61.70;;;;;;5051989;28;20163;-68
2021/10/25 04:31:39;;;;;;;2.30;2.20;;;16.80;61.70;;;;;;5052304;28;20649;-66
2021/10/25 04:34:04;;;;;;;2.38;2.17;;;16.80;61.70;;;;;;5052785;28;20179;-67
2021/10/25 04:36:30;;;;;;;2.65;2.35;;;16.80;61.70;;;;;;5051228;28;20178;-65
2021/10/25 04:38:55;;;;;;;2.63;2.45;;;16.80;61.70;;;;;;5052685;28;20237;-64
2021/10/25 04:41:21;;;;;;;2.50;2.30;;;16.80;61.70;;;;;;5052707;28;20642;-66
2021/10/25 04:43:46;;;;;;;2.20;2.10;;;16.80;61.70;;;;;;5051430;28;20237;-64
2021/10/25 04:46:12;;;;;;;2.17;2.08;;;16.80;61.70;;;;;;5052807;28;20175;-65
2021/10/25 04:48:38;;;;;;;2.25;2.15;;;16.80;61.70;;;;;;5052337;28;20201;-66
2021/10/25 04:51:03;;;;;;;2.00;1.90;;;16.80;61.70;;;;;;5052047;28;20168;-67
2021/10/25 04:53:30;;;;;;;2.33;2.13;;;16.80;61.80;;;;;;5052410;28;20240;-67
2021/10/25 04:55:56;;;;;;;2.47;2.30;;;16.80;61.80;;;;;;5052166;28;20179;-67
2021/10/25 04:58:21;;;;;;;2.33;2.13;;;16.70;61.70;;;;;;5052204;28;20234;-67
2021/10/25 05:00:47;;;;;;;2.25;2.05;;;16.70;61.70;;;;;;5052193;28;20167;-66
2021/10/25 05:03:12;;;;;;;2.17;2.05;;;16.70;61.70;;;;;;5052110;28;20175;-66
2021/10/25 05:05:38;;;;;;;2.33;2.10;;;16.80;61.70;;;;;;5052323;28;20630;-64
2021/10/25 05:08:03;;;;;;;2.30;2.10;;;16.80;61.70;;;;;;5052482;28;20744;-66
2021/10/25 05:10:29;;;;;;;1.95;1.85;;;16.90;61.90;;;;;;5051491;28;20179;-66
2021/10/25 05:12:54;;;;;;;2.15;2.05;;;17.00;61.80;;;;;;5052360;28;20241;-68
2021/10/25 05:15:20;;;;;;;2.00;1.90;;;17.20;61.50;;;;;;5052571;28;20230;-68
2021/10/25 05:17:45;;;;;;;2.30;2.10;;;17.40;61.10;;;;;;5051064;28;20678;-67
2021/10/25 05:20:11;;;;;;;2.92;1.98;;;17.60;60.70;;;;;;5052435;28;20266;-66
2021/10/25 05:22:36;;;;;;;2.20;2.00;;;17.90;60.20;;;;;;5051919;28;20179;-67
2021/10/25 05:25:02;;;;;;;1.90;1.80;;;18.00;59.70;;;;;;5051599;28;20209;-67
2021/10/25 05:27:27;;;;;;;1.98;1.88;;;18.20;59.40;;;;;;5052147;28;20168;-66
2021/10/25 05:29:53;;;;;;;1.80;1.70;;;18.30;59.20;;;;;;5052034;28;20179;-67
2021/10/25 05:32:19;;;;;;;2.05;1.95;;;18.40;59.00;;;;;;5050931;28;20210;-66
2021/10/25 05:34:44;;;;;;;1.98;1.88;;;18.50;58.90;;;;;;5052115;28;20217;-66
2021/10/25 05:37:10;;;;;;;1.80;1.70;;;18.60;58.80;;;;;;5052163;28;20181;-66
2021/10/25 05:39:36;;;;;;;1.77;1.67;;;18.70;58.50;;;;;;5051179;28;20677;-65
2021/10/25 05:42:05;;;;;;;2.00;1.90;;;18.80;58.40;;;;;;5051937;28;20225;-66
2021/10/25 05:44:30;;;;;;;2.03;1.92;;;18.90;58.20;;;;;;5051602;28;20226;-66
2021/10/25 05:46:56;;;;;;;2.13;1.95;;;19.00;58.10;;;;;;5052320;28;20195;-66
2021/10/25 05:49:22;;;;;;;1.67;1.58;;;19.00;58.00;;;;;;5055739;28;20257;-65
2021/10/25 05:51:47;;;;;;;2.00;1.90;;;19.10;57.90;;;;;;5055467;28;20258;-65
2021/10/25 05:54:13;;;;;;;2.25;1.75;;;19.10;58.00;;;;;;5054938;28;20637;-66
2021/10/25 05:56:38;;;;;;;1.85;1.75;;;19.10;57.90;;;;;;5054640;28;20228;-66
2021/10/25 05:59:05;;;;;;;2.17;1.98;;;19.00;58.00;;;;;;5055620;28;20236;-67
2021/10/25 06:04:27;;;;;;;1.70;1.60;;;18.90;58.40;;;;;;5046555;28;20195;-65
2021/10/25 06:06:53;;;;;;;1.77;1.67;;;18.80;58.50;;;;;;5054417;28;20191;-65
2021/10/25 06:09:18;;;;;;;1.88;1.77;;;18.70;58.70;;;;;;5055307;28;20206;-66
2021/10/25 06:11:44;;;;;;;1.60;1.50;;;18.60;58.90;;;;;;5054991;28;20601;-66
2021/10/25 06:14:12;;;;;;;2.13;2.03;;;18.50;59.10;;;;;;5054706;28;20198;-67
2021/10/25 06:16:42;;;;;;;2.13;1.92;;;18.40;59.30;;;;;;5055083;28;20246;-67
2021/10/25 06:19:10;;;;;;;1.80;1.70;;;18.40;59.40;;;;;;5055463;28;20218;-68
2021/10/25 06:21:36;;;;;;;1.88;1.77;;;18.30;59.50;;;;;;5054337;28;20222;-67
2021/10/25 06:24:01;;;;;;;1.80;1.70;;;18.20;59.70;;;;;;5054950;28;20203;-67
2021/10/25 06:26:27;;;;;;;1.70;1.60;;;18.10;59.80;;;;;;5055250;28;20178;-67
2021/10/25 06:28:53;;;;;;;2.00;1.70;;;18.00;59.90;;;;;;5054208;28;20209;-74
2021/10/25 06:31:19;;;;;;;1.92;1.70;;;18.00;60.10;;;;;;5054865;28;20258;-71
2021/10/25 06:33:46;;;;;;;2.00;1.90;;;17.90;60.20;;;;;;5054719;28;20535;-73
2021/10/25 06:36:12;;;;;;;1.90;1.80;;;18.00;60.40;;;;;;5054150;28;20290;-73
2021/10/25 06:39:09;;;;;;;1.85;1.75;;;18.00;60.50;;;;;;5054618;28;20298;-76
2021/10/25 06:41:24;;;;;;;3.13;1.95;;;18.00;60.60;;;;;;5053304;28;20683;-73
2021/10/25 06:43:50;;;;;;;2.50;1.80;;;18.00;60.60;;;;;;5053832;28;20266;-79
2021/10/25 06:46:17;;;;;;;2.03;1.83;;;18.00;61.10;;;;;;5054890;28;20229;-79
2021/10/25 06:48:46;;;;;;;2.70;2.00;;;18.00;61.70;;;;;;5053789;28;20186;-76
2021/10/25 06:51:11;;;;;;;2.65;1.92;;;18.00;61.60;;;;;;5054594;28;20645;-74
2021/10/25 06:53:37;;;;;;;2.95;2.15;;;18.00;61.90;;;;;;5054452;28;20189;-76
2021/10/25 06:56:03;;;;;;;5.93;2.60;;;18.00;62.10;;;;;;5053965;28;20167;-73
2021/10/25 06:58:28;;;;;;;4.80;1.98;;;18.00;62.00;;;;;;5054312;28;20215;-79
2021/10/25 07:00:58;;;;;;;1.75;1.65;;;18.00;62.10;;;;;;5054351;28;20637;-75
2021/10/25 07:03:24;;;;;;;2.00;1.83;;;18.00;62.10;;;;;;5053965;28;20270;-79
2021/10/25 07:05:49;;;;;;;3.58;1.90;;;18.00;62.10;;;;;;5054530;28;20209;-73
2021/10/25 07:08:15;;;;;;;3.97;2.00;;;18.00;62.10;;;;;;5054412;28;20205;-64
2021/10/25 07:10:41;;;;;;;5.20;1.90;;;18.00;61.70;;;;;;5053284;28;20175;-64
2021/10/25 07:13:07;;;;;;;4.88;2.05;;;18.00;61.60;;;;;;5054184;28;20175;-64
2021/10/25 07:15:34;;;;;;;3.53;2.00;;;17.90;61.70;;;;;;5054023;28;20171;-66
2021/10/25 07:18:07;;;;;;;4.07;2.28;;;17.90;61.80;;;;;;5053175;28;20286;-66
2021/10/25 07:23:37;;;;;;;4.53;2.22;;;17.80;62.00;;;;;;5054235;28;20240;-66
2021/10/25 07:26:41;;;;;;;4.32;2.25;;;17.80;62.20;;;;;;5053428;28;20225;-65
2021/10/25 08:05:02;;;;;;;3.63;2.40;;;17.70;62.40;;;;;;5053171;28;20174;-66
2021/10/25 08:08:00;;;;;;;4.65;2.30;;;17.70;62.40;;;;;;5052391;28;20174;-66
2021/10/25 08:10:32;;;;;;;3.00;2.20;;;17.60;62.40;;;;;;5052761;28;20254;-64
2021/10/25 08:13:01;;;;;;;4.88;3.00;;;17.60;62.40;;;;;;5052588;28;20297;-64
2021/10/25 08:15:34;;;;;;;2.45;2.25;;;17.60;62.50;;;;;;5053061;28;20226;-65
2021/10/25 08:18:02;;;;;;;3.17;2.10;;;17.60;62.50;;;;;;5052924;28;20257;-64
2021/10/25 08:20:27;;;;;;;2.92;2.05;;;17.60;62.50;;;;;;5052171;28;20653;-65
2021/10/25 08:22:53;;;;;;;2.60;2.00;;;17.70;62.60;;;;;;5052626;28;20167;-65
2021/10/25 08:25:19;;;;;;;2.72;2.00;;;17.70;62.50;;;;;;5053018;28;20178;-64
2021/10/25 08:27:45;;;;;;;2.53;2.30;;;17.80;62.40;;;;;;5051795;28;20179;-66
2021/10/25 08:30:12;;;;;;;2.72;2.05;;;17.80;62.40;;;;;;5052856;28;20182;-66
2021/10/25 08:40:37;;;;;;;3.55;2.38;;;17.70;62.40;;;;;;5052316;28;20539;-66
2021/10/25 08:43:03;;;;;;;2.05;1.90;;;17.70;62.40;;;;;;5051711;28;20263;-65
2021/10/25 08:45:30;;;;;;;3.15;2.20;;;17.70;62.40;;;;;;5052424;28;20168;-66
2021/10/25 08:47:57;;;;;;;2.20;1.88;;;17.80;62.40;;;;;;5051487;28;20270;-66
2021/10/25 08:50:24;;;;;;;2.40;1.90;;;17.80;62.30;;;;;;5050632;28;20707;-66
2021/10/25 08:52:50;;;;;;;2.70;1.88;;;17.90;62.20;;;;;;5052286;28;20693;-66
2021/10/25 08:55:17;;;;;;;3.38;1.77;;;17.90;62.10;;;;;;5051865;28;20541;-66
2021/10/25 08:57:42;;;;;;;1.85;1.67;;;17.90;62.00;;;;;;5052149;28;20238;-67
2021/10/25 09:00:12;;;;;;;3.08;1.83;;;17.90;62.00;;;;;;5052169;28;20222;-66
2021/10/25 09:02:42;;;;;;;2.63;1.73;;;17.90;61.90;;;;;;5051644;28;20179;-66
2021/10/25 09:05:11;;;;;;;2.70;1.95;;;17.90;61.90;;;;;;5052606;28;20167;-65
2021/10/25 09:08:05;;;;;;;3.05;2.05;;;17.80;61.90;;;;;;5052296;28;20218;-66
2021/10/25 09:10:36;;;;;;;2.30;1.90;;;17.80;61.90;;;;;;5051396;28;20588;-65
2021/10/25 09:13:07;;;;;;;2.95;1.80;;;17.90;62.00;;;;;;5052519;28;20190;-64
2021/10/25 09:15:37;;;;;;;2.33;1.80;;;17.90;62.00;;;;;;5052343;28;20262;-65
2021/10/25 09:18:11;;;;;;;2.70;1.73;;;17.90;61.90;;;;;;5051673;28;20219;-67
2021/10/25 09:20:47;;;;;;;2.08;1.88;;;18.00;61.80;;;;;;5052367;28;20198;-65
2021/10/25 09:23:13;;;;;;;1.58;1.48;;;18.00;61.60;;;;;;5054472;28;20174;-65
2021/10/25 09:25:39;;;;;;;2.30;1.83;;;18.00;61.60;;;;;;5056252;28;20179;-65
2021/10/25 09:28:15;;;;;;;3.20;2.13;;;18.00;61.60;;;;;;5056166;28;20167;-65
2021/10/25 09:30:46;;;;;;;1.92;1.63;;;18.00;61.60;;;;;;5055069;28;20704;-67
2021/10/25 09:33:19;;;;;;;2.15;1.95;;;17.90;61.60;;;;;;5056045;28;20179;-66
2021/10/25 09:35:47;;;;;;;2.00;1.60;;;17.90;61.70;;;;;;5055841;28;20168;-67
2021/10/25 09:43:37;;;;;;;2.13;1.92;;;18.00;61.80;;;;;;5056038;28;20226;-66
2021/10/25 09:51:22;;;;;;;2.13;1.88;;;18.10;61.50;;;;;;5055172;28;20186;-67
2021/10/25 09:53:48;;;;;;;2.22;1.70;;;18.10;61.50;;;;;;5055211;28;20183;-67
2021/10/25 09:56:16;;;;;;;2.10;2.00;;;18.00;61.50;;;;;;5054283;28;20724;-71
2021/10/25 09:58:47;;;;;;;2.50;1.60;;;18.00;61.50;;;;;;5054474;28;21002;-74
2021/10/25 10:01:15;;;;;;;2.50;1.80;;;18.00;61.60;;;;;;5055616;28;20258;-71
2021/10/25 10:03:42;;;;;;;2.05;1.55;;;18.10;61.80;;;;;;5055084;28;20176;-74
2021/10/25 10:06:07;;;;;;;2.53;2.00;;;18.10;61.80;;;;;;5053664;28;20179;-73
2021/10/25 10:08:40;;;;;;;2.42;2.03;;;18.20;61.80;;;;;;5055067;28;20308;-71
2021/10/25 10:11:06;;;;;;;3.65;2.20;;;18.10;61.60;;;;;;5055578;28;20221;-70
2021/10/25 10:13:32;;;;;;;2.08;1.70;;;18.20;61.60;;;;;;5053359;28;20191;-72
2021/10/25 10:15:58;;;;;;;2.08;1.85;;;18.30;61.70;;;;;;5053990;28;20186;-74
2021/10/25 10:18:25;;;;;;;2.85;1.80;;;18.20;61.70;;;;;;5057785;28;20256;-72
2021/10/25 10:20:53;;;;;;;3.13;1.90;;;18.20;61.90;;;;;;5061451;28;20645;-73
2021/10/25 10:23:19;;;;;;;3.17;2.08;;;18.20;61.70;;;;;;5063301;28;20204;-71
2021/10/25 10:25:50;;;;;;;2.00;1.80;;;18.20;61.80;;;;;;5062869;28;20531;-74
2021/10/25 10:28:18;;;;;;;2.25;1.80;;;18.20;62.00;;;;;;5059676;28;20262;-73
2021/10/25 10:31:01;;;;;;;1.88;1.60;;;18.20;61.90;;;;;;5054687;28;20206;-66
2021/10/25 10:33:33;;;;;;;2.38;1.65;;;18.30;62.00;;;;;;5054253;28;20182;-67
2021/10/25 10:36:31;;;;;;;2.75;1.92;;;18.20;61.90;;;;;;5054356;28;20179;-68
2021/10/25 10:39:12;;;;;;;2.33;1.70;;;18.20;61.80;;;;;;5041453;28;20222;-66
2021/10/25 10:41:43;;;;;;;3.03;1.70;;;18.20;61.80;;;;;;5053718;28;20182;-67
2021/10/25 10:44:11;;;;;;;2.05;1.55;;;18.20;61.80;;;;;;5054419;28;20242;-67
2021/10/25 10:47:01;;;;;;;4.10;1.60;;;18.20;61.80;;;;;;5054604;28;20203;-67
2021/10/25 10:49:29;;;;;;;3.03;1.77;;;18.20;61.70;;;;;;5054062;28;20263;-67
2021/10/25 10:52:33;;;;;;;4.63;2.13;;;18.10;61.70;;;;;;5054491;28;20764;-67
2021/10/25 10:55:01;;;;;;;15.85;2.38;;;18.20;61.70;;;;;;5054007;28;20198;-67
2021/10/25 10:58:10;;;;;;;2.20;1.70;;;18.20;61.60;;;;;;5054332;28;20175;-66
2021/10/25 11:00:48;;;;;;;2.63;1.90;;;18.10;61.60;;;;;;5053923;28;20187;-74
2021/10/25 11:03:25;;;;;;;4.05;1.90;;;18.10;61.90;;;;;;5053757;28;20175;-73
2021/10/25 11:06:04;;;;;;;7.05;2.13;;;18.10;62.00;;;;;;5054762;28;20182;-79
2021/10/25 11:08:41;;;;;;;6.00;1.60;;;18.10;62.00;;;;;;5054149;28;20656;-75
2021/10/25 11:11:13;;;;;;;2.63;1.75;;;18.10;62.00;;;;;;5053996;28;20182;-75
2021/10/25 11:13:43;;;;;;;3.22;2.05;;;18.10;62.20;;;;;;5053891;28;20642;-75
2021/10/25 11:16:20;;;;;;;3.35;1.90;;;18.10;62.40;;;;;;5053823;28;20303;-72
2021/10/25 11:18:48;;;;;;;5.78;2.05;;;18.10;62.30;;;;;;5053745;28;20264;-76
2021/10/25 11:21:27;;;;;;;5.20;1.75;;;18.10;62.20;;;;;;5054005;28;20226;-73
2021/10/25 11:23:59;;;;;;;4.35;2.00;;;18.10;62.30;;;;;;5052969;28;20187;-71
2021/10/25 11:26:28;;;;;;;3.80;1.73;;;18.10;62.10;;;;;;5054155;28;20257;-75
2021/10/25 11:29:10;;;;;;;3.42;1.70;;;18.20;62.10;;;;;;5054008;28;20175;-75
2021/10/25 11:31:58;;;;;;;4.68;1.50;;;18.20;62.00;;;;;;5052727;28;20175;-74
2021/10/25 11:34:44;;;;;;;7.72;2.17;;;18.20;62.10;;;;;;5053694;28;20175;-76
2021/10/25 11:37:17;;;;;;;4.05;1.85;;;18.20;62.10;;;;;;5053127;28;20179;-72
2021/10/25 11:39:58;;;;;;;4.32;2.03;;;18.20;62.20;;;;;;5053348;28;20191;-75
2021/10/25 11:42:38;;;;;;;1.70;1.50;;;18.20;62.40;;;;;;5052354;28;20536;-73
2021/10/25 11:45:12;;;;;;;6.32;1.80;;;18.20;62.40;;;;;;5052238;28;20186;-72
2021/10/25 11:47:41;;;;;;;3.22;1.58;;;18.20;62.50;;;;;;5053352;28;20202;-72
2021/10/25 11:50:08;;;;;;;3.15;1.85;;;18.20;62.60;;;;;;5053469;28;20191;-71
2021/10/25 11:52:41;;;;;;;3.20;1.58;;;18.10;62.60;;;;;;5052470;28;20229;-73
2021/10/25 11:55:11;;;;;;;4.47;1.80;;;18.10;62.70;;;;;;5053280;28;20524;-72
2021/10/25 11:57:37;;;;;;;3.35;1.63;;;18.00;62.70;;;;;;5052001;28;20195;-74
2021/10/25 12:00:08;;;;;;;2.63;1.80;;;18.10;62.80;;;;;;5052565;28;20653;-75
2021/10/25 12:02:34;;;;;;;3.47;1.60;;;18.10;62.80;;;;;;5051320;28;20189;-75
2021/10/25 12:05:00;;;;;;;4.97;1.70;;;18.00;62.80;;;;;;5052869;28;20240;-75
2021/10/25 12:07:25;;;;;;;2.78;1.77;;;18.00;62.80;;;;;;5053254;28;20167;-76
2021/10/25 12:10:06;;;;;;;5.20;2.55;;;18.00;62.80;;;;;;5052800;28;20674;-63
2021/10/25 12:12:35;;;;;;;4.88;1.70;;;18.00;62.90;;;;;;5052138;28;20645;-62
2021/10/25 12:15:03;;;;;;;2.28;1.83;;;18.00;63.10;;;;;;5053232;28;20254;-63
2021/10/25 12:17:33;;;;;;;3.58;1.88;;;18.00;63.00;;;;;;5052678;28;20167;-63
2021/10/25 12:20:04;;;;;;;3.22;1.75;;;18.00;63.00;;;;;;5034910;28;20232;-64
2021/10/25 12:22:29;;;;;;;3.17;1.70;;;18.00;62.90;;;;;;5052752;28;20199;-64
2021/10/25 12:24:56;;;;;;;3.25;1.70;;;17.90;62.80;;;;;;5052843;28;20218;-64
2021/10/25 12:27:47;;;;;;;4.30;2.00;;;17.90;62.80;;;;;;5052243;28;20175;-63
2021/10/25 12:30:16;;;;;;;4.00;1.88;;;18.00;62.80;;;;;;5052861;28;20175;-65
2021/10/25 12:32:57;;;;;;;2.08;1.60;;;17.90;62.70;;;;;;5052536;28;20247;-66
2021/10/25 12:35:35;;;;;;;2.95;1.50;;;17.90;62.80;;;;;;5052237;28;20179;-64
2021/10/25 12:38:12;;;;;;;5.20;1.70;;;17.90;62.80;;;;;;5052770;28;20222;-64
2021/10/25 12:40:40;;;;;;;1.88;1.70;;;17.90;62.80;;;;;;5060395;28;20163;-65
2021/10/25 12:43:06;;;;;;;4.22;1.50;;;18.00;62.70;;;;;;5062252;28;20226;-63
2021/10/25 12:45:39;;;;;;;2.60;1.50;;;17.90;62.70;;;;;;5072605;28;20209;-65
2021/10/25 12:48:05;;;;;;;1.95;1.70;;;17.90;62.70;;;;;;5056278;28;20183;-63
2021/10/25 12:50:32;;;;;;;3.58;2.15;;;18.00;62.70;;;;;;5052239;28;20175;-64
2021/10/25 12:52:58;;;;;;;1.65;1.48;;;17.90;62.70;;;;;;5052527;28;20653;-64
2021/10/25 12:55:23;;;;;;;2.67;1.35;;;17.90;62.70;;;;;;5057553;28;20166;-66
2021/10/25 12:57:49;;;;;;;2.25;1.50;;;18.00;62.80;;;;;;5076080;28;20213;-66
2021/10/25 13:00:15;;;;;;;2.58;1.60;;;18.10;62.60;;;;;;5075171;28;20193;-65
2021/10/25 13:02:51;;;;;;;2.00;1.63;;;18.20;62.20;;;;;;5075779;28;20181;-66
2021/10/25 13:05:22;;;;;;;2.50;1.55;;;18.20;62.10;;;;;;5076706;28;20170;-65
2021/10/25 13:07:50;;;;;;;1.95;1.63;;;18.20;62.10;;;;;;5076368;28;20171;-64
2021/10/25 13:10:20;;;;;;;2.97;1.88;;;18.30;62.10;;;;;;5075832;28;20208;-63
2021/10/25 13:12:46;;;;;;;2.90;1.77;;;18.30;62.00;;;;;;5068206;28;20536;-64
2021/10/25 13:15:11;;;;;;;1.60;1.50;;;18.40;62.00;;;;;;5056279;28;20648;-63
2021/10/25 13:17:37;;;;;;;2.33;1.58;;;18.40;61.90;;;;;;5055176;28;20699;-64
2021/10/25 13:20:04;;;;;;;1.65;1.55;;;18.40;61.90;;;;;;5056341;28;20194;-64
2021/10/25 13:22:30;;;;;;;3.15;1.50;;;18.30;62.10;;;;;;5055125;28;20633;-71
2021/10/25 13:24:56;;;;;;;2.42;1.40;;;18.20;62.30;;;;;;5056351;28;20197;-65
2021/10/25 13:27:22;;;;;;;3.95;1.83;;;18.20;62.50;;;;;;5056374;28;20179;-77
2021/10/25 13:29:47;;;;;;;3.17;1.42;;;18.20;62.50;;;;;;5055163;28;20270;-76
2021/10/25 13:32:14;;;;;;;3.80;1.90;;;18.30;62.30;;;;;;5056344;28;20171;-75
2021/10/25 13:34:39;;;;;;;1.40;1.30;;;18.40;62.10;;;;;;5055837;28;20197;-77
2021/10/25 13:37:05;;;;;;;2.50;1.80;;;18.40;61.80;;;;;;5055123;28;20622;-73
2021/10/25 13:39:30;;;;;;;3.40;1.60;;;18.50;61.70;;;;;;5055786;28;20203;-73
2021/10/25 13:41:56;;;;;;;2.03;1.83;;;18.50;61.70;;;;;;5056129;28;20175;-71
2021/10/25 13:44:21;;;;;;;4.28;1.88;;;18.50;61.60;;;;;;5054516;28;20227;-73
2021/10/25 13:46:47;;;;;;;2.58;1.58;;;18.60;61.40;;;;;;5062600;28;20197;-74
2021/10/25 13:49:12;;;;;;;1.63;1.52;;;18.60;61.50;;;;;;5075781;28;20206;-72
2021/10/25 13:51:38;;;;;;;2.13;1.48;;;18.50;61.70;;;;;;5074620;28;20174;-66
2021/10/25 13:54:04;;;;;;;3.72;1.73;;;18.50;61.80;;;;;;5075650;28;20179;-65
2021/10/25 13:56:29;;;;;;;3.95;1.90;;;18.60;61.70;;;;;;5075464;28;20175;-65
2021/10/25 13:58:56;;;;;;;2.72;1.50;;;18.60;61.60;;;;;;5074541;28;20221;-66
2021/10/25 14:01:22;;;;;;;3.92;1.67;;;18.60;61.60;;;;;;5075644;28;20625;-66
2021/10/25 14:03:49;;;;;;;5.53;1.90;;;18.60;61.60;;;;;;5075308;28;20190;-66
2021/10/25 14:06:15;;;;;;;4.80;1.92;;;18.60;61.60;;;;;;5074739;28;20185;-71
2021/10/25 14:08:43;;;;;;;2.83;1.88;;;18.60;61.70;;;;;;5074348;28;20261;-71
2021/10/25 14:11:09;;;;;;;2.30;1.80;;;18.60;61.70;;;;;;5075538;28;20175;-74
2021/10/25 14:18:45;;;;;;;2.30;1.77;;;18.60;62.20;;;;;;5073904;28;20606;-72
2021/10/25 14:21:14;;;;;;;5.47;2.05;;;18.60;61.90;;;;;;5074058;28;20618;-73
2021/10/25 14:23:39;;;;;;;3.28;1.58;;;18.60;61.90;;;;;;5075080;28;20205;-73
2021/10/25 14:26:05;;;;;;;2.95;1.92;;;18.60;62.00;;;;;;5074509;28;20167;-64
2021/10/25 14:28:30;;;;;;;3.95;1.88;;;18.50;62.20;;;;;;5074805;28;20171;-74
2021/10/25 14:30:57;;;;;;;6.20;2.00;;;18.40;62.30;;;;;;5075207;28;20170;-75
2021/10/25 14:33:23;;;;;;;2.85;1.80;;;18.40;62.50;;;;;;5073848;28;20189;-75